Jacksonville, Florida
Current Conditions -  °F | °C
As of 10:56 AM on Saturday 22 Nov 2014 (Local Time) from KJAX Reporting Station
Broken Clouds Broken Clouds  
Wind Chill: 21°   Ceiling: 3800
Heat Index: 21°   Visibility: 10mi
Dew Point: 16°   Wind: 15mph
Humidity: 71%   Direction: 80°E
Pressure: 30.34"   Gusts: NA
Location:  30.32°N, 81.66°W
Report Text: KJAX 221556Z 08013KT 10SM BKN038 BKN060 21/16 A3034 RMK AO2 RAE1458 SLP275 P0000 T02110156
Loading
Personal Weather Stations






























Interactive Weather Map New forecast layout! Learn more

10-Day Weather Forecast

Advertisements
Track Severe Weather on mobile